デンバー の空港の天気 - METARとTAF

デンバー国際空港 ( KDEN / DEN ) - アメリカ コロラド州デンバー
飛行場実況気象(Metar)
観測時間11/17 10:53 MST (11/17 17:53 UTC)
風向・風速東 9m/s
視程800m
天気現象弱い氷霧雨 雪 もや
全天を覆う雲 雲底高度 120m
気温-3.9℃
湿度100%
気圧1024.3hPa
METARKDEN 171753Z 09017KT 1/2SM R35L/P6000FT -FZDZSN BR OVC004 M04/M04 A3020 RMK AO2 SFC VIS 1 1/2 SNB42 SLP243 P0000 60003 I1005 I6022 T10391039 10011 21039 51003 $
過去の天気等 Google飛行場航空写真 Wunderground天気予報

過去48時間のMETAR

飛行場予報(TAF)
発表時間: 11/17 10:40 MST (11/17 17:40 UTC)
予報対象時間: 17日11時 MST ~ 18日17時 MST
風向・風速東 5m/s 瞬間風速 9m/s
17日11時 MST ~ 17日13時 MST に一時的に
視程1210m
天気現象弱い雪 もや
全天を覆う雲 雲底高度 90m
17日13時 MST から
風向・風速東 6m/s
視程3220m
天気現象弱い雪 もや
全天を覆う雲 雲底高度 120m
17日16時 MST から
風向・風速東 4m/s
視程6440m
天気現象弱い雪 もや
全天の8割程度の雲 雲底高度 150m
全天を覆う雲 雲底高度 370m
17日22時 MST から
風向・風速南東 4m/s
視程10km以上
全天の8割程度の雲 雲底高度 270m
全天を覆う雲 雲底高度 460m
17日22時 MST から 確率 30% で
視程8050m
天気現象弱い雪 もや
全天を覆う雲 雲底高度 240m
18日3時 MST から
風向・風速南 4m/s
視程10km以上
全天の4割程度の雲 雲底高度 910m
全天の8割程度の雲 雲底高度 1830m
18日8時 MST から
風向・風速南西 5m/s
視程10km以上
少しの雲 雲底高度 3050m
全天の4割程度の雲 雲底高度 6710m
KDEN 171740Z 1718/1824 08010G18KT 1 1/2SM -FZDZSN BR OVC003
TEMPO 1718/1720 3/4SM -SN BR OVC003
FM172000 09011KT 2SM -SN BR OVC004
FM172300 10008KT 4SM -SN BR BKN005 OVC012
FM180500 13007KT P6SM BKN009 OVC015
PROB30 1805/1808 5SM -SN BR OVC008
FM181000 17008KT P6SM SCT030 BKN060
FM181500 23009KT P6SM FEW100 SCT220